Time;durP1;ratioP1;P1;durP2;ratioP2;P2;SDS_P1;SDS_P2;PMS_P1;PMS_P2;Temp;Humidity;BMP_temperature;BMP_pressure;BME280_temperature;BME280_humidity;BME280_pressure;Samples;Min_cycle;Max_cycle;Signal;HPM_P1;HPM_P2
2022/10/10 00:01:59;;;;;;;9.18;7.78;;;24.30;59.80;;;;;;5032409;28;20029;-36
2022/10/10 00:04:25;;;;;;;8.35;7.47;;;24.30;59.70;;;;;;5041727;28;20132;-36
2022/10/10 00:06:51;;;;;;;9.35;8.43;;;24.30;59.70;;;;;;5042033;28;20057;-36
2022/10/10 00:09:17;;;;;;;8.90;8.00;;;24.30;59.60;;;;;;5022443;28;20057;-36
2022/10/10 00:11:43;;;;;;;8.45;7.65;;;24.20;59.60;;;;;;5022706;28;20756;-36
2022/10/10 00:14:10;;;;;;;9.82;8.40;;;24.20;59.60;;;;;;5026781;28;20068;-36
2022/10/10 00:16:36;;;;;;;12.75;9.00;;;24.20;59.70;;;;;;5022868;28;20090;-35
2022/10/10 00:19:02;;;;;;;10.20;8.18;;;24.20;59.60;;;;;;5021097;28;20828;-36
2022/10/10 00:21:28;;;;;;;10.90;8.95;;;24.20;59.90;;;;;;5020981;28;20034;-35
2022/10/10 00:23:54;;;;;;;12.43;9.38;;;24.20;60.10;;;;;;5026649;28;20037;-36
2022/10/10 00:26:20;;;;;;;14.07;9.45;;;24.20;60.30;;;;;;5023336;28;20030;-35
2022/10/10 00:28:47;;;;;;;17.15;10.30;;;24.30;61.60;;;;;;5029804;28;20455;-34
2022/10/10 00:31:13;;;;;;;15.73;10.48;;;24.30;63.00;;;;;;5022063;28;20111;-34
2022/10/10 00:33:39;;;;;;;92.20;51.80;;;24.30;62.20;;;;;;5021651;28;20129;-34
2022/10/10 00:36:06;;;;;;;71.53;42.97;;;24.30;61.70;;;;;;5022384;28;20289;-34
2022/10/10 00:38:32;;;;;;;93.57;59.25;;;24.30;61.30;;;;;;5026222;28;20033;-34
2022/10/10 00:40:58;;;;;;;82.33;54.43;;;24.30;61.10;;;;;;5018685;28;20049;-35
2022/10/10 00:43:25;;;;;;;72.03;42.00;;;24.30;61.30;;;;;;5031747;28;20033;-35
2022/10/10 00:45:51;;;;;;;46.50;31.23;;;24.40;61.20;;;;;;5023182;28;20041;-36
2022/10/10 00:48:18;;;;;;;43.47;27.17;;;24.50;61.00;;;;;;5022221;28;20056;-37
2022/10/10 00:51:08;;;;;;;37.40;22.48;;;24.60;60.20;;;;;;5015774;28;20030;-36
2022/10/10 00:53:39;;;;;;;33.53;20.27;;;24.60;59.90;;;;;;5026380;28;20064;-36
2022/10/10 00:56:05;;;;;;;38.40;18.88;;;24.60;60.00;;;;;;5023375;28;20049;-35
2022/10/10 00:58:31;;;;;;;29.27;17.73;;;24.60;60.50;;;;;;5027529;28;20034;-37
2022/10/10 01:00:57;;;;;;;25.52;15.70;;;24.60;61.00;;;;;;5021203;28;20366;-36
2022/10/10 01:03:24;;;;;;;21.70;15.18;;;24.60;60.60;;;;;;5018330;28;20093;-35
2022/10/10 01:05:50;;;;;;;117.97;58.45;;;24.60;60.60;;;;;;5022518;28;20040;-42
2022/10/10 01:08:17;;;;;;;126.88;75.50;;;24.60;60.50;;;;;;5023375;28;20085;-38
2022/10/10 01:11:22;;;;;;;127.25;77.88;;;24.60;60.40;;;;;;5013382;28;20035;-35
2022/10/10 01:14:23;;;;;;;174.88;104.63;;;24.50;60.40;;;;;;5043256;28;20442;-35
2022/10/10 01:16:58;;;;;;;256.88;159.32;;;24.50;60.40;;;;;;5023853;28;20034;-35
2022/10/10 01:19:52;;;;;;;286.48;180.98;;;24.50;60.50;;;;;;5024363;28;20037;-35
2022/10/10 01:22:52;;;;;;;289.20;189.80;;;24.50;60.60;;;;;;5042108;28;20051;-35
2022/10/10 01:25:29;;;;;;;252.77;164.15;;;24.50;60.60;;;;;;5016343;28;20049;-36
2022/10/10 01:28:29;;;;;;;262.60;170.82;;;24.40;60.60;;;;;;5033050;28;20041;-35
2022/10/10 01:30:56;;;;;;;238.43;149.77;;;24.40;60.90;;;;;;5010388;28;20075;-38
2022/10/10 01:33:34;;;;;;;222.73;142.80;;;24.30;61.10;;;;;;5022791;28;20076;-45
2022/10/10 01:36:15;;;;;;;262.98;175.20;;;24.30;61.00;;;;;;5019679;28;20122;-36
2022/10/10 01:39:36;;;;;;;251.57;160.95;;;24.30;60.80;;;;;;5023398;28;20097;-35
2022/10/10 01:42:06;;;;;;;296.33;206.00;;;24.30;60.70;;;;;;4987998;28;20038;-35
2022/10/10 01:44:32;;;;;;;275.40;186.95;;;24.30;62.70;;;;;;5002501;28;20074;-35
2022/10/10 01:46:58;;;;;;;233.23;155.30;;;24.30;63.40;;;;;;5000505;28;20729;-36
2022/10/10 01:49:27;;;;;;;196.18;127.95;;;24.30;64.50;;;;;;5001880;28;20038;-36
2022/10/10 01:51:59;;;;;;;178.32;116.70;;;24.30;64.30;;;;;;5016173;28;20045;-36
2022/10/10 01:54:46;;;;;;;151.38;97.88;;;24.40;63.60;;;;;;4982097;28;20027;-36
2022/10/10 01:57:27;;;;;;;130.38;87.30;;;24.40;63.20;;;;;;4999264;28;20046;-35
2022/10/10 02:00:02;;;;;;;109.63;74.95;;;24.40;63.20;;;;;;5002513;28;20041;-36
2022/10/10 02:02:52;;;;;;;98.82;67.72;;;24.40;63.00;;;;;;5000489;28;20040;-36
2022/10/10 02:05:43;;;;;;;92.30;58.55;;;24.40;62.90;;;;;;4991705;28;20120;-36
2022/10/10 02:08:13;;;;;;;82.75;53.97;;;24.40;63.00;;;;;;4989193;28;20034;-36
2022/10/10 02:10:45;;;;;;;70.07;49.30;;;24.30;62.60;;;;;;4996276;28;20060;-36
2022/10/10 02:13:12;;;;;;;70.07;47.58;;;24.30;62.40;;;;;;4988846;28;20046;-36
2022/10/10 02:15:42;;;;;;;56.15;41.83;;;24.30;62.20;;;;;;4997906;28;20034;-36
2022/10/10 02:18:08;;;;;;;48.72;35.50;;;24.20;60.60;;;;;;5000473;28;20721;-36
2022/10/10 02:20:34;;;;;;;45.88;33.35;;;24.10;59.50;;;;;;5013277;28;20376;-36
2022/10/10 02:23:00;;;;;;;42.05;32.17;;;24.10;58.80;;;;;;5021508;28;20030;-37
2022/10/10 02:25:29;;;;;;;40.83;30.95;;;24.00;58.40;;;;;;5010871;28;20037;-35
2022/10/10 02:28:05;;;;;;;41.75;29.40;;;23.90;58.50;;;;;;5022905;28;21116;-35
2022/10/10 02:30:33;;;;;;;36.83;28.15;;;23.90;58.20;;;;;;5017799;28;20061;-34
2022/10/10 02:33:00;;;;;;;31.50;26.17;;;23.70;58.10;;;;;;5023166;28;20033;-37
2022/10/10 02:35:38;;;;;;;30.77;25.55;;;23.50;57.70;;;;;;5022389;28;20048;-33
2022/10/10 02:38:05;;;;;;;29.15;23.33;;;23.40;57.40;;;;;;5019524;28;20029;-34
2022/10/10 02:40:31;;;;;;;27.45;22.20;;;23.30;57.00;;;;;;5019082;28;20140;-33
2022/10/10 02:42:59;;;;;;;26.95;20.90;;;23.30;56.80;;;;;;5020017;28;20085;-33
2022/10/10 02:45:27;;;;;;;25.83;20.92;;;23.20;56.30;;;;;;5022399;28;20060;-34
2022/10/10 02:47:53;;;;;;;22.58;19.05;;;23.10;56.00;;;;;;5015237;28;20050;-33
2022/10/10 02:50:20;;;;;;;23.65;18.33;;;23.10;55.90;;;;;;5015994;28;20033;-33
2022/10/10 02:52:46;;;;;;;20.95;17.40;;;23.00;55.80;;;;;;5019923;28;20465;-33
2022/10/10 02:55:12;;;;;;;18.50;16.30;;;22.80;55.70;;;;;;5017739;28;20034;-33
2022/10/10 02:57:39;;;;;;;19.15;16.25;;;22.80;55.70;;;;;;5018627;28;20030;-33
2022/10/10 03:00:06;;;;;;;16.90;15.10;;;22.70;55.50;;;;;;5022847;28;20025;-33
2022/10/10 03:02:32;;;;;;;16.58;14.30;;;22.60;55.40;;;;;;5035050;28;20747;-37
2022/10/10 03:04:58;;;;;;;15.70;13.90;;;22.60;55.30;;;;;;5016205;28;20041;-33
2022/10/10 03:07:24;;;;;;;14.02;12.63;;;22.50;55.10;;;;;;5026685;28;20072;-33
2022/10/10 03:09:51;;;;;;;16.87;12.00;;;22.40;55.00;;;;;;5019333;28;20038;-33
2022/10/10 03:12:17;;;;;;;14.40;12.30;;;22.30;55.20;;;;;;5018080;28;20303;-34
2022/10/10 03:14:44;;;;;;;9.80;8.07;;;22.20;55.00;;;;;;5022240;28;20513;-35
2022/10/10 03:17:10;;;;;;;11.98;10.77;;;22.20;54.90;;;;;;5022670;28;20350;-33
2022/10/10 03:19:36;;;;;;;12.68;11.27;;;22.10;54.90;;;;;;5019721;28;20037;-34
2022/10/10 03:22:03;;;;;;;14.32;12.77;;;22.00;54.90;;;;;;5021461;28;20033;-34
2022/10/10 03:24:29;;;;;;;12.37;11.07;;;21.90;55.00;;;;;;5021290;28;20128;-34
2022/10/10 03:26:55;;;;;;;11.68;10.48;;;21.80;55.00;;;;;;5014526;28;20030;-34
2022/10/10 03:29:21;;;;;;;11.77;9.50;;;21.70;54.90;;;;;;5021060;28;20041;-34
2022/10/10 03:31:47;;;;;;;10.50;9.40;;;21.70;54.90;;;;;;5017035;28;20040;-34
2022/10/10 03:34:13;;;;;;;10.52;9.20;;;21.60;55.00;;;;;;5020578;28;20029;-34
2022/10/10 03:36:40;;;;;;;9.80;8.80;;;21.50;55.20;;;;;;5021463;28;20021;-35
2022/10/10 03:39:08;;;;;;;8.82;7.93;;;21.40;55.50;;;;;;5022920;28;20394;-36
2022/10/10 03:41:34;;;;;;;9.13;8.23;;;21.30;55.30;;;;;;5022788;28;20696;-36
2022/10/10 03:44:00;;;;;;;8.10;7.30;;;21.30;55.20;;;;;;5022480;28;20108;-35
2022/10/10 03:46:27;;;;;;;8.23;7.43;;;21.20;55.10;;;;;;5030787;28;20044;-35
2022/10/10 03:48:53;;;;;;;7.40;6.68;;;21.10;55.00;;;;;;5023801;28;20073;-35
2022/10/10 03:51:19;;;;;;;7.18;6.47;;;21.00;55.10;;;;;;5019765;28;20025;-34
2022/10/10 03:53:45;;;;;;;6.75;6.15;;;20.90;55.10;;;;;;5023125;28;20053;-35
2022/10/10 03:56:11;;;;;;;6.55;5.95;;;20.90;55.10;;;;;;5029347;28;20029;-36
2022/10/10 03:58:38;;;;;;;6.60;6.00;;;20.80;55.00;;;;;;5023353;28;20454;-35
2022/10/10 04:01:04;;;;;;;6.30;5.70;;;20.80;55.00;;;;;;5033261;28;20053;-35
2022/10/10 04:03:30;;;;;;;6.10;5.50;;;20.70;55.00;;;;;;5042300;28;20021;-35
2022/10/10 04:05:56;;;;;;;6.72;6.05;;;20.60;55.00;;;;;;5019249;28;20136;-35
2022/10/10 04:08:22;;;;;;;5.47;4.97;;;20.50;55.10;;;;;;5029507;28;20057;-36
2022/10/10 04:10:49;;;;;;;5.55;5.03;;;20.50;55.20;;;;;;5014119;28;20064;-35
2022/10/10 04:13:16;;;;;;;5.90;5.00;;;20.30;55.10;;;;;;5026442;28;20033;-35
2022/10/10 04:15:42;;;;;;;5.45;4.95;;;20.30;55.20;;;;;;5030252;28;20038;-33
2022/10/10 04:18:08;;;;;;;6.28;5.68;;;20.30;55.40;;;;;;5025163;28;20040;-33
2022/10/10 04:20:34;;;;;;;5.45;4.93;;;20.30;56.00;;;;;;5020999;28;20060;-35
2022/10/10 04:23:00;;;;;;;4.80;4.40;;;20.30;56.40;;;;;;5020346;28;20034;-35
2022/10/10 04:25:26;;;;;;;5.35;4.85;;;20.30;56.70;;;;;;5022421;28;20164;-34
2022/10/10 04:27:52;;;;;;;4.90;4.40;;;20.30;56.90;;;;;;5013031;28;20782;-33
2022/10/10 04:30:18;;;;;;;4.75;4.32;;;20.30;57.20;;;;;;5025390;28;20050;-34
2022/10/10 04:32:44;;;;;;;4.45;4.05;;;20.30;57.40;;;;;;5032576;28;20026;-34
2022/10/10 04:35:11;;;;;;;4.78;4.38;;;20.30;57.60;;;;;;5026024;28;20078;-34
2022/10/10 04:37:37;;;;;;;4.28;3.88;;;20.30;57.70;;;;;;5024980;28;20109;-33
2022/10/10 04:40:04;;;;;;;4.40;4.00;;;20.30;57.90;;;;;;5026028;28;20502;-33
2022/10/10 04:42:30;;;;;;;4.57;4.18;;;20.30;58.00;;;;;;5024417;28;20037;-33
2022/10/10 04:44:56;;;;;;;4.25;3.83;;;20.30;58.10;;;;;;5032477;28;20631;-33
2022/10/10 04:47:22;;;;;;;4.00;3.60;;;20.20;58.20;;;;;;5030851;28;20033;-33
2022/10/10 04:49:48;;;;;;;3.90;3.60;;;20.30;58.30;;;;;;5030202;28;20591;-34
2022/10/10 04:52:14;;;;;;;3.90;3.50;;;20.20;58.40;;;;;;5013056;28;20121;-33
2022/10/10 04:54:40;;;;;;;4.05;3.67;;;20.20;58.50;;;;;;5020770;28;20049;-34
2022/10/10 04:57:07;;;;;;;3.60;3.30;;;20.20;58.50;;;;;;5023315;28;20033;-34
2022/10/10 04:59:33;;;;;;;3.75;3.45;;;20.20;58.60;;;;;;5028972;28;20037;-34
2022/10/10 05:01:59;;;;;;;3.28;2.97;;;20.20;58.70;;;;;;5025305;28;20049;-34
2022/10/10 05:04:25;;;;;;;4.03;3.67;;;20.20;58.80;;;;;;5021710;28;20026;-34
2022/10/10 05:06:51;;;;;;;3.88;3.53;;;20.20;58.90;;;;;;5025665;28;20129;-34
2022/10/10 05:09:17;;;;;;;3.70;3.40;;;20.20;59.00;;;;;;5023992;28;20418;-34
2022/10/10 05:11:43;;;;;;;3.50;3.20;;;20.20;59.00;;;;;;5025130;28;20109;-34
2022/10/10 05:14:09;;;;;;;3.70;3.40;;;20.20;59.10;;;;;;5022760;28;20064;-34
2022/10/10 05:16:35;;;;;;;4.00;3.67;;;20.10;59.10;;;;;;5037728;28;20026;-34
2022/10/10 05:19:02;;;;;;;3.72;3.30;;;20.20;59.20;;;;;;5032388;28;20769;-34
2022/10/10 05:21:28;;;;;;;3.60;3.30;;;20.10;59.20;;;;;;5018754;28;20072;-34
2022/10/10 05:23:54;;;;;;;3.47;3.17;;;20.10;59.30;;;;;;5022380;28;20034;-34
2022/10/10 05:26:20;;;;;;;3.40;3.10;;;20.20;59.60;;;;;;5028530;28;20057;-41
2022/10/10 05:28:46;;;;;;;3.63;3.10;;;20.20;59.80;;;;;;5021751;28;20050;-43
2022/10/10 05:31:12;;;;;;;3.07;2.77;;;20.10;59.80;;;;;;5039751;28;20067;-42
2022/10/10 05:33:39;;;;;;;3.65;3.35;;;20.10;59.90;;;;;;5023891;28;20119;-43
2022/10/10 05:36:10;;;;;;;3.60;3.30;;;20.10;59.90;;;;;;5029907;28;20321;-43
2022/10/10 05:38:36;;;;;;;3.20;2.90;;;20.10;59.90;;;;;;5031126;28;20057;-43
2022/10/10 05:41:02;;;;;;;3.47;3.17;;;20.10;60.00;;;;;;5027472;28;20025;-43
2022/10/10 05:43:28;;;;;;;4.07;2.95;;;20.10;60.00;;;;;;5034153;28;20037;-43
2022/10/10 05:45:55;;;;;;;3.35;3.05;;;20.10;60.10;;;;;;5030758;28;20025;-43
2022/10/10 05:48:21;;;;;;;3.30;3.00;;;20.10;60.10;;;;;;5024883;28;20042;-42
2022/10/10 05:50:51;;;;;;;3.63;3.33;;;20.10;60.20;;;;;;5021602;28;20126;-43
2022/10/10 05:53:17;;;;;;;3.22;2.92;;;20.10;60.20;;;;;;5024951;28;20064;-42
2022/10/10 05:55:44;;;;;;;3.13;2.90;;;20.10;60.20;;;;;;5022422;28;20025;-43
2022/10/10 05:58:12;;;;;;;3.50;3.15;;;20.10;60.30;;;;;;5020892;28;20035;-43
2022/10/10 06:00:39;;;;;;;3.78;3.45;;;20.00;60.40;;;;;;5029480;28;20080;-43
2022/10/10 06:03:05;;;;;;;;;;;20.00;60.70;;;;;;5027209;28;20061;-43
2022/10/10 06:05:31;;;;;;;3.22;2.92;;;20.10;60.80;;;;;;5022954;28;19910;-45
2022/10/10 06:07:57;;;;;;;3.25;2.95;;;20.00;60.80;;;;;;5020833;28;20041;-43
2022/10/10 06:10:23;;;;;;;3.58;3.28;;;20.00;60.80;;;;;;5019489;28;20053;-43
2022/10/10 06:12:50;;;;;;;3.42;3.13;;;20.00;60.80;;;;;;5022687;28;20061;-42
2022/10/10 06:15:16;;;;;;;3.22;2.92;;;20.00;60.90;;;;;;5022774;28;20033;-41
2022/10/10 06:17:42;;;;;;;3.50;3.20;;;20.00;60.90;;;;;;5022168;28;20241;-41
2022/10/10 06:20:08;;;;;;;3.95;3.50;;;20.00;61.00;;;;;;5020013;28;20053;-42
2022/10/10 06:22:35;;;;;;;3.75;3.40;;;20.00;61.10;;;;;;5024061;28;20021;-40
2022/10/10 06:25:01;;;;;;;3.00;2.75;;;19.90;61.10;;;;;;5029248;28;20089;-40
2022/10/10 06:27:27;;;;;;;3.15;2.75;;;19.90;61.10;;;;;;5025295;28;20089;-41
2022/10/10 06:29:54;;;;;;;3.22;2.90;;;19.90;61.10;;;;;;4967585;28;1765072;-41
2022/10/10 06:32:20;;;;;;;3.20;2.90;;;19.90;61.10;;;;;;5022182;28;20018;-41
2022/10/10 06:34:46;;;;;;;3.40;3.10;;;19.90;61.10;;;;;;5021076;28;20103;-41
2022/10/10 06:37:12;;;;;;;2.72;2.53;;;19.90;61.40;;;;;;5032542;28;20064;-43
2022/10/10 06:39:38;;;;;;;3.40;3.10;;;19.80;61.20;;;;;;5033872;28;20482;-42
2022/10/10 06:42:04;;;;;;;3.40;3.10;;;19.80;61.20;;;;;;5035108;28;20048;-42
2022/10/10 06:44:30;;;;;;;3.22;2.92;;;19.80;61.30;;;;;;5038307;28;20037;-42
2022/10/10 06:46:56;;;;;;;4.05;3.20;;;19.80;61.40;;;;;;5024439;28;20041;-38
2022/10/10 06:49:23;;;;;;;3.42;3.13;;;19.80;61.40;;;;;;5020911;28;20044;-42
2022/10/10 06:51:49;;;;;;;3.10;2.80;;;19.80;61.40;;;;;;5021270;28;20053;-42
2022/10/10 06:54:15;;;;;;;3.40;3.10;;;19.80;61.40;;;;;;5019530;28;20034;-42
2022/10/10 06:56:41;;;;;;;3.40;3.10;;;19.70;61.30;;;;;;5035418;28;20021;-41
2022/10/10 06:59:07;;;;;;;3.25;2.95;;;19.80;61.40;;;;;;5022510;28;20550;-41
2022/10/10 07:01:33;;;;;;;3.40;2.95;;;19.70;61.40;;;;;;5023467;28;20037;-41
2022/10/10 07:03:59;;;;;;;3.05;2.72;;;19.80;61.80;;;;;;5027381;28;20061;-41
2022/10/10 07:06:25;;;;;;;3.10;2.80;;;19.70;61.80;;;;;;5022190;28;20048;-41
2022/10/10 07:08:51;;;;;;;3.30;3.00;;;19.80;61.90;;;;;;5032057;28;20033;-39
2022/10/10 07:11:17;;;;;;;3.00;2.80;;;19.70;61.80;;;;;;5021996;28;20053;-41
2022/10/10 07:13:44;;;;;;;3.25;2.95;;;19.70;61.70;;;;;;5020000;28;20037;-41
2022/10/10 07:16:10;;;;;;;3.30;3.00;;;19.70;61.70;;;;;;5030906;28;20407;-42
2022/10/10 07:18:36;;;;;;;3.33;3.03;;;19.70;61.80;;;;;;5030387;28;20034;-42
2022/10/10 07:21:02;;;;;;;2.80;2.60;;;19.70;61.80;;;;;;5009448;28;20039;-41
2022/10/10 07:23:30;;;;;;;2.97;2.67;;;19.70;61.80;;;;;;5021837;28;20025;-42
2022/10/10 07:26:01;;;;;;;3.20;2.90;;;19.60;61.80;;;;;;5022595;28;20038;-40
2022/10/10 07:28:27;;;;;;;2.92;2.67;;;19.60;61.80;;;;;;5020369;28;20068;-41
2022/10/10 07:31:04;;;;;;;2.67;2.47;;;19.60;61.80;;;;;;5019565;28;20050;-39
2022/10/10 07:33:32;;;;;;;2.80;2.60;;;19.60;61.90;;;;;;5022341;28;20033;-43
2022/10/10 07:35:58;;;;;;;3.85;2.90;;;19.60;61.90;;;;;;5028613;28;20061;-41
2022/10/10 07:38:25;;;;;;;2.78;2.58;;;19.60;61.90;;;;;;5031138;28;20902;-41
2022/10/10 07:40:51;;;;;;;3.05;2.75;;;19.60;61.90;;;;;;5025054;28;20044;-39
2022/10/10 07:43:17;;;;;;;3.15;2.85;;;19.50;61.90;;;;;;5020970;28;20401;-42
2022/10/10 07:45:43;;;;;;;2.95;2.65;;;19.60;62.00;;;;;;5015716;28;20061;-41
2022/10/10 07:48:09;;;;;;;3.47;3.17;;;19.50;62.00;;;;;;5027748;28;20033;-41
2022/10/10 07:50:40;;;;;;;3.17;2.88;;;19.50;62.00;;;;;;5028548;28;20029;-41
2022/10/10 07:53:07;;;;;;;3.42;3.13;;;19.50;62.00;;;;;;5022707;28;20069;-42
2022/10/10 07:55:33;;;;;;;3.20;2.90;;;19.50;62.00;;;;;;5031401;28;20021;-41
2022/10/10 07:58:02;;;;;;;3.55;3.25;;;19.50;62.10;;;;;;5032488;28;20041;-41
2022/10/10 08:00:28;;;;;;;4.90;2.60;;;19.50;62.10;;;;;;5020511;28;20033;-31
2022/10/10 08:02:55;;;;;;;3.20;2.90;;;19.50;62.20;;;;;;5017299;28;20040;-33
2022/10/10 08:05:21;;;;;;;3.40;3.10;;;19.50;62.10;;;;;;5022130;28;20044;-31
2022/10/10 08:07:47;;;;;;;3.72;3.08;;;19.50;62.00;;;;;;5021493;28;20128;-31
2022/10/10 08:10:13;;;;;;;2.97;2.67;;;19.40;61.90;;;;;;5028105;28;20036;-40
2022/10/10 08:12:39;;;;;;;3.42;3.13;;;19.40;61.90;;;;;;5027016;28;20110;-41
2022/10/10 08:15:06;;;;;;;3.75;3.35;;;19.40;62.30;;;;;;5022512;28;20089;-41
2022/10/10 08:17:32;;;;;;;33.55;7.22;;;19.40;62.60;;;;;;5023390;28;20027;-41
2022/10/10 08:19:58;;;;;;;22.00;6.13;;;19.50;63.00;;;;;;5021370;28;20041;-43
2022/10/10 08:22:25;;;;;;;22.58;6.20;;;19.50;63.40;;;;;;5012964;28;20042;-34
2022/10/10 08:24:51;;;;;;;22.10;5.78;;;19.50;63.70;;;;;;5027152;28;20049;-35
2022/10/10 08:27:18;;;;;;;12.90;5.30;;;19.60;63.80;;;;;;5022533;28;20038;-33
2022/10/10 08:29:44;;;;;;;20.27;6.32;;;19.60;63.10;;;;;;5030431;28;20045;-34
2022/10/10 08:32:10;;;;;;;17.48;5.70;;;19.60;62.80;;;;;;5026239;28;20057;-41
2022/10/10 08:34:37;;;;;;;22.23;6.05;;;19.60;62.50;;;;;;5022017;28;20041;-42
2022/10/10 08:37:03;;;;;;;14.57;5.65;;;19.60;62.20;;;;;;5017816;28;20030;-39
2022/10/10 08:39:29;;;;;;;18.35;5.80;;;19.60;62.00;;;;;;5019266;28;20466;-42
2022/10/10 08:41:57;;;;;;;15.23;5.57;;;19.60;61.70;;;;;;5020025;28;20803;-43
2022/10/10 08:44:35;;;;;;;14.15;5.53;;;19.70;61.60;;;;;;5019282;28;20034;-39
2022/10/10 08:47:23;;;;;;;17.45;5.88;;;19.60;61.30;;;;;;5022643;28;20080;-42
2022/10/10 08:50:25;;;;;;;15.55;5.85;;;19.60;61.20;;;;;;5015534;28;20030;-41
2022/10/10 08:53:02;;;;;;;13.50;5.45;;;19.60;61.00;;;;;;4992682;28;20073;-43
2022/10/10 08:55:32;;;;;;;12.75;5.65;;;19.60;60.90;;;;;;5018822;28;20030;-43
2022/10/10 08:58:15;;;;;;;14.00;5.38;;;19.60;60.70;;;;;;5012764;28;20038;-43
2022/10/10 09:00:48;;;;;;;12.27;5.30;;;19.60;60.60;;;;;;5050561;28;20029;-43
2022/10/10 09:03:38;;;;;;;12.35;5.28;;;19.60;60.50;;;;;;5019620;28;20062;-43
2022/10/10 09:06:16;;;;;;;12.45;5.63;;;19.60;60.40;;;;;;5013952;28;20037;-45
2022/10/10 09:08:48;;;;;;;;;;;19.60;60.30;;;;;;5030386;28;20105;-42
2022/10/10 09:11:27;;;;;;;9.90;5.20;;;19.60;60.20;;;;;;5022827;28;19913;-43
2022/10/10 09:14:34;;;;;;;10.90;5.68;;;19.60;60.20;;;;;;5053585;28;20680;-42
2022/10/10 09:17:23;;;;;;;9.20;5.47;;;19.60;60.10;;;;;;4990028;28;20060;-42
2022/10/10 09:20:10;;;;;;;10.68;6.13;;;19.60;60.80;;;;;;5019004;28;20034;-43
2022/10/10 09:23:02;;;;;;;9.10;5.27;;;19.60;60.00;;;;;;5019899;28;20018;-42
2022/10/10 09:25:34;;;;;;;8.38;5.38;;;19.50;59.90;;;;;;5018571;28;20286;-43
2022/10/10 09:28:15;;;;;;;9.80;5.70;;;19.50;60.00;;;;;;5023553;28;20038;-43
2022/10/10 09:30:46;;;;;;;8.73;5.45;;;19.50;59.80;;;;;;5024487;28;20061;-43
2022/10/10 09:33:22;;;;;;;7.93;5.30;;;19.50;59.80;;;;;;5024267;28;20053;-42
2022/10/10 09:35:48;;;;;;;10.13;5.00;;;19.50;59.80;;;;;;5020254;28;20022;-42
2022/10/10 09:38:41;;;;;;;8.45;5.40;;;19.50;59.80;;;;;;5039149;28;20037;-39
2022/10/10 09:41:45;;;;;;;9.70;5.40;;;19.50;59.80;;;;;;5021467;28;20034;-38
2022/10/10 09:44:12;;;;;;;9.48;5.40;;;19.40;59.80;;;;;;5030223;28;20037;-42
2022/10/10 09:46:38;;;;;;;8.10;5.40;;;19.40;59.80;;;;;;5023377;28;20599;-42
2022/10/10 09:49:04;;;;;;;8.38;5.03;;;19.40;59.70;;;;;;5026148;28;20041;-42
2022/10/10 09:51:30;;;;;;;8.10;5.30;;;19.40;59.70;;;;;;5020748;28;20026;-41
2022/10/10 09:53:56;;;;;;;7.38;5.18;;;19.40;59.70;;;;;;5019496;28;20093;-41
2022/10/10 09:56:30;;;;;;;7.60;5.25;;;19.40;59.70;;;;;;5015812;28;20045;-41
2022/10/10 09:58:56;;;;;;;6.68;5.07;;;19.40;59.70;;;;;;5034787;28;20030;-41
2022/10/10 10:01:23;;;;;;;6.38;5.20;;;19.30;59.60;;;;;;5021312;28;20049;-40
2022/10/10 10:04:15;;;;;;;7.13;5.10;;;19.30;59.60;;;;;;5016871;28;20111;-40
2022/10/10 10:06:49;;;;;;;7.13;5.47;;;19.30;59.60;;;;;;5033971;28;20025;-41
2022/10/10 10:09:19;;;;;;;7.85;5.65;;;19.30;59.70;;;;;;5027421;28;20760;-40
2022/10/10 10:11:46;;;;;;;5.38;4.78;;;19.30;59.60;;;;;;5022153;28;20057;-41
2022/10/10 10:14:25;;;;;;;6.90;5.50;;;19.30;59.60;;;;;;5024290;28;20662;-44
2022/10/10 10:16:52;;;;;;;7.78;5.68;;;19.30;59.60;;;;;;5023320;28;20079;-41
2022/10/10 10:19:38;;;;;;;5.97;5.35;;;19.20;59.60;;;;;;5026721;28;21748;-41
2022/10/10 10:22:04;;;;;;;6.85;5.60;;;19.20;59.60;;;;;;5025161;28;20045;-33
2022/10/10 10:24:35;;;;;;;6.65;5.90;;;19.20;59.60;;;;;;5027015;28;20039;-33
2022/10/10 10:27:16;;;;;;;6.80;6.20;;;19.20;62.00;;;;;;5012492;28;20692;-33
2022/10/10 10:29:47;;;;;;;6.30;5.65;;;19.20;65.30;;;;;;5023688;28;20070;-34
2022/10/10 10:32:21;;;;;;;6.18;5.57;;;19.20;66.30;;;;;;5026341;28;20091;-34
2022/10/10 10:35:11;;;;;;;5.45;4.90;;;19.30;67.50;;;;;;5022768;28;20029;-34
2022/10/10 10:38:05;;;;;;;308.33;139.23;;;19.30;67.90;;;;;;5026615;28;20025;-34
2022/10/10 10:40:52;;;;;;;304.42;139.43;;;19.30;68.50;;;;;;5027704;28;20038;-33
2022/10/10 10:43:43;;;;;;;430.48;215.50;;;19.40;68.80;;;;;;5026938;28;20029;-37
2022/10/10 10:46:13;;;;;;;355.08;174.98;;;19.40;69.00;;;;;;5015517;28;20068;-33
2022/10/10 10:48:43;;;;;;;175.93;85.07;;;19.50;69.40;;;;;;5025365;28;20042;-34
2022/10/10 10:51:34;;;;;;;99.88;46.67;;;19.50;69.60;;;;;;5022022;28;20046;-40
2022/10/10 10:54:23;;;;;;;55.72;28.17;;;19.60;69.50;;;;;;5015313;28;20445;-35
2022/10/10 10:56:53;;;;;;;;;;;19.70;69.50;;;;;;5026043;28;20101;-36
2022/10/10 10:59:45;;;;;;;29.42;14.00;;;19.70;69.50;;;;;;5016135;28;19940;-35
2022/10/10 11:02:39;;;;;;;26.13;12.45;;;19.80;69.40;;;;;;5020690;28;20044;-35
2022/10/10 11:05:07;;;;;;;19.42;9.82;;;19.90;69.40;;;;;;5000248;28;20372;-35
2022/10/10 11:07:43;;;;;;;12.90;7.53;;;19.90;69.20;;;;;;5016559;28;20038;-35
2022/10/10 11:10:11;;;;;;;11.55;7.00;;;20.00;69.10;;;;;;5022223;28;20133;-35
2022/10/10 11:13:02;;;;;;;9.68;6.15;;;20.10;69.10;;;;;;5021132;28;20025;-35
2022/10/10 11:15:30;;;;;;;7.18;4.88;;;20.10;68.90;;;;;;5026983;28;20029;-35
2022/10/10 11:18:08;;;;;;;6.47;4.43;;;20.20;68.80;;;;;;5023576;28;20060;-35
2022/10/10 11:20:56;;;;;;;5.28;4.30;;;20.30;68.60;;;;;;5016530;28;20037;-35
2022/10/10 11:23:32;;;;;;;5.38;4.15;;;20.40;68.50;;;;;;5021898;28;20060;-36
2022/10/10 11:26:06;;;;;;;4.75;3.75;;;20.40;68.40;;;;;;5032262;28;20033;-35
2022/10/10 11:29:10;;;;;;;4.55;3.67;;;20.50;68.20;;;;;;5025122;28;20461;-35
2022/10/10 11:31:39;;;;;;;3.63;3.30;;;20.60;68.10;;;;;;4954219;28;20047;-35
2022/10/10 11:34:11;;;;;;;4.63;3.38;;;20.60;68.10;;;;;;4943749;29;20035;-35
2022/10/10 11:36:38;;;;;;;3.90;3.30;;;20.70;67.90;;;;;;4940812;29;20039;-35
2022/10/10 11:39:36;;;;;;;3.47;3.15;;;20.80;67.80;;;;;;4959521;29;20057;-35
2022/10/10 11:42:06;;;;;;;3.60;3.25;;;20.90;67.60;;;;;;4955748;29;20071;-35
2022/10/10 11:44:59;;;;;;;3.35;3.05;;;20.90;67.40;;;;;;4956543;28;20094;-35
2022/10/10 11:47:46;;;;;;;3.58;3.28;;;21.00;67.30;;;;;;4941586;29;20051;-35
2022/10/10 11:50:38;;;;;;;3.58;3.13;;;21.10;67.10;;;;;;4945474;29;20054;-35
2022/10/10 11:53:16;;;;;;;3.47;3.10;;;21.20;67.00;;;;;;4943448;29;20050;-35
2022/10/10 11:56:09;;;;;;;3.15;2.80;;;21.30;66.90;;;;;;4943761;29;20396;-35
2022/10/10 11:58:43;;;;;;;3.33;3.03;;;21.40;66.70;;;;;;4956330;29;20035;-35
2022/10/10 12:01:26;;;;;;;3.00;2.80;;;21.40;66.50;;;;;;4946045;29;20555;-35
2022/10/10 12:03:52;;;;;;;3.28;2.97;;;21.50;66.30;;;;;;4960722;29;20043;-35
2022/10/10 12:06:29;;;;;;;3.05;2.80;;;21.60;65.70;;;;;;4952171;28;20062;-35
2022/10/10 12:09:03;;;;;;;3.42;3.13;;;21.60;65.10;;;;;;5027773;28;20037;-35
2022/10/10 12:11:45;;;;;;;3.33;3.03;;;21.70;64.70;;;;;;5031230;28;20026;-36
2022/10/10 12:14:14;;;;;;;3.58;3.28;;;21.70;64.30;;;;;;5022601;28;20509;-35
2022/10/10 12:16:40;;;;;;;3.38;3.08;;;21.80;64.00;;;;;;5022246;28;20109;-35
2022/10/10 12:19:17;;;;;;;3.45;3.15;;;21.80;63.60;;;;;;5021614;28;20056;-35
2022/10/10 12:21:57;;;;;;;4.28;3.60;;;21.80;63.20;;;;;;5022147;28;20046;-36
2022/10/10 12:24:47;;;;;;;3.38;3.08;;;21.90;62.90;;;;;;5021963;28;20028;-35
2022/10/10 12:27:28;;;;;;;3.60;3.30;;;21.90;62.60;;;;;;5011003;28;20065;-35
2022/10/10 12:29:57;;;;;;;3.53;3.22;;;21.90;62.20;;;;;;5028346;28;20053;-35
2022/10/10 12:32:28;;;;;;;3.78;3.13;;;21.90;61.90;;;;;;5034046;28;20057;-35
2022/10/10 12:34:59;;;;;;;3.75;3.45;;;21.90;61.70;;;;;;5026227;28;20494;-35
2022/10/10 12:37:32;;;;;;;3.75;3.45;;;21.90;61.50;;;;;;5038874;28;20045;-35
2022/10/10 12:40:17;;;;;;;3.67;3.30;;;21.90;61.30;;;;;;5027318;28;20038;-35
2022/10/10 12:42:46;;;;;;;3.50;3.20;;;21.90;61.00;;;;;;5022192;28;20084;-35
2022/10/10 12:45:30;;;;;;;4.05;3.65;;;22.00;61.00;;;;;;5028500;28;20037;-35
2022/10/10 12:48:17;;;;;;;4.18;3.78;;;21.90;60.80;;;;;;5010191;28;20057;-35
2022/10/10 12:50:43;;;;;;;3.75;3.45;;;21.90;60.70;;;;;;5017575;28;20090;-35
2022/10/10 12:53:12;;;;;;;3.95;3.55;;;21.90;60.50;;;;;;5033165;28;20021;-35
2022/10/10 12:55:41;;;;;;;4.43;4.10;;;21.90;60.40;;;;;;5030171;28;20089;-35
2022/10/10 12:58:21;;;;;;;4.25;3.85;;;21.90;60.30;;;;;;5024549;28;20040;-35
2022/10/10 13:00:47;;;;;;;4.80;3.88;;;21.90;60.20;;;;;;5023086;28;20454;-35
2022/10/10 13:03:17;;;;;;;4.45;4.05;;;21.90;60.00;;;;;;5025581;28;20026;-35